METAR Data
IDs: Format: Raw Decoded Include TAF

Data at: 0110 UTC 19 Nov 2018

METAR for:PADQ (Kodiak Arpt, AK, US)
Text:PADQ 190053Z 30011KT 8SM -RA OVC046 08/06 A2931 RMK SLP924 P0005 T00780061 VIA AUTODIAL
Temperature: 7.8°C ( 46°F)
Dewpoint: 6.1°C ( 43°F) [RH = 89%]
Pressure (altimeter):29.31 inches Hg ( 992.6 mb) [Sea level pressure: 992.4 mb]
Winds:from the WNW (300 degrees) at 13 MPH (11 knots; 5.7 m/s)
Visibility: 8 sm ( 13 km)
Ceiling:4600 feet AGL
Clouds: overcast cloud deck at 4600 feet AGL
Weather:-RA (light rain)
Text:PADQ 182353Z 31011KT 10SM -RA FEW040 OVC048 08/07 A2932 RMK SLP928 P0001 60010 T00780067 10083 20067 56016 VIA AUTODIAL
Temperature: 7.8°C ( 46°F)
Dewpoint: 6.7°C ( 44°F) [RH = 93%]
Pressure (altimeter):29.32 inches Hg ( 993.0 mb) [Sea level pressure: 992.8 mb]
Winds:from the NW (310 degrees) at 13 MPH (11 knots; 5.7 m/s)
Visibility:10 or more sm (16+ km)
Ceiling:4800 feet AGL
Clouds: few clouds at 4000 feet AGL, overcast cloud deck at 4800 feet AGL
Weather:-RA (light rain)
Text:PADQ 182253Z 31008KT 10SM -RA OVC060 08/07 A2933 RMK SLP932 P0002 T00780067 VIA AUTODIAL
Temperature: 7.8°C ( 46°F)
Dewpoint: 6.7°C ( 44°F) [RH = 93%]
Pressure (altimeter):29.33 inches Hg ( 993.3 mb) [Sea level pressure: 993.2 mb]
Winds:from the NW (310 degrees) at 9 MPH (8 knots; 4.1 m/s)
Visibility:10 or more sm (16+ km)
Ceiling:6000 feet AGL
Clouds: overcast cloud deck at 6000 feet AGL
Weather:-RA (light rain)
Text:PADQ 182153Z 31006KT 10SM -RA FEW038 OVC060 08/07 A2935 RMK SLP939 P0002 T00780072 VIA AUTODIAL
Temperature: 7.8°C ( 46°F)
Dewpoint: 7.2°C ( 45°F) [RH = 96%]
Pressure (altimeter):29.35 inches Hg ( 994.0 mb) [Sea level pressure: 993.9 mb]
Winds:from the NW (310 degrees) at 7 MPH (6 knots; 3.1 m/s)
Visibility:10 or more sm (16+ km)
Ceiling:6000 feet AGL
Clouds: few clouds at 3800 feet AGL, overcast cloud deck at 6000 feet AGL
Weather:-RA (light rain)
Text:PADQ 182053Z 00000KT 9SM -RA FEW025 OVC041 08/07 A2937 RMK SLP944 P0002 60005 T00780072 50000 VIA AUTODIAL
Temperature: 7.8°C ( 46°F)
Dewpoint: 7.2°C ( 45°F) [RH = 96%]
Pressure (altimeter):29.37 inches Hg ( 994.7 mb) [Sea level pressure: 994.4 mb]
Winds:calm
Visibility: 9 sm ( 14 km)
Ceiling:4100 feet AGL
Clouds: few clouds at 2500 feet AGL, overcast cloud deck at 4100 feet AGL
Weather:-RA (light rain)
Text:PADQ 181953Z 00000KT 5SM -RA BR FEW025 BKN035 OVC045 07/07 A2937 RMK RAB1854 SLP946 P0003 T00720072 VIA AUTODIAL
Temperature: 7.2°C ( 45°F)
Dewpoint: 7.2°C ( 45°F) [RH = 100%]
Pressure (altimeter):29.37 inches Hg ( 994.7 mb) [Sea level pressure: 994.6 mb]
Winds:calm
Visibility: 5 sm ( 8 km)
Ceiling:3500 feet AGL
Clouds: few clouds at 2500 feet AGL, broken clouds at 3500 feet AGL, overcast cloud deck at 4500 feet AGL
Weather:-RA BR (light rain, mist)

TAF for:PADQ (Kodiak Arpt, AK, US) issued at 2326 UTC 18 Nov 2018
Text:PADQ 182326Z 1900/1924 32010KT 5SM -RA BR BKN025 OVC060
Forecast period:0000 to 1500 UTC 19 November 2018
Forecast type:FROM: standard forecast or significant change
Winds:from the NW (320 degrees) at 12 MPH (10 knots; 5.1 m/s)
Visibility: 5 sm ( 8 km)
Ceiling:2500 feet AGL
Clouds: broken clouds at 2500 feet AGL, overcast cloud deck at 6000 feet AGL
Weather:-RA BR (light rain, mist)
Text:TEMPO 1900/1904 6SM -RA SCT025 OVC060
Forecast period:0000 to 0400 UTC 19 November 2018
Forecast type:TEMPORARY: The following changes expected for less than half the time period
Visibility: 6 sm ( 10 km)
Ceiling:6000 feet AGL
Clouds: scattered clouds at 2500 feet AGL, overcast cloud deck at 6000 feet AGL
Weather:-RA (light rain)
Text:FM191500 29010G18KT P6SM -SHRA OVC025
Forecast period:1500 to 2000 UTC 19 November 2018
Forecast type:FROM: standard forecast or significant change
Winds:from the WNW (290 degrees) at 12 MPH (10 knots; 5.1 m/s) gusting to 21 MPH (18 knots; 9.3 m/s)
Visibility:6 or more sm (10+ km)
Ceiling:2500 feet AGL
Clouds: overcast cloud deck at 2500 feet AGL
Weather:-SHRA (light rain showers)
Text:FM192000 29010G18KT P6SM VCSH SCT025 OVC040
Forecast period:2000 UTC 19 November 2018 to 0000 UTC 20 November 2018
Forecast type:FROM: standard forecast or significant change
Winds:from the WNW (290 degrees) at 12 MPH (10 knots; 5.1 m/s) gusting to 21 MPH (18 knots; 9.3 m/s)
Visibility:6 or more sm (10+ km)
Ceiling:4000 feet AGL
Clouds: scattered clouds at 2500 feet AGL, overcast cloud deck at 4000 feet AGL
Weather:VCSH (showers in vicinity)